Swayzee, Indiana
Current Conditions -  °F | °C
As of 7:35 PM on Friday 31 Oct 2014 (Local Time) from KMZZ Reporting Station
Light Rain Light Rain  
Wind Chill: 24°   Ceiling: 800
Heat Index: 34°   Visibility: 10mi
Dew Point: 32°   Wind: 15mph
Humidity: 92%   Direction: 360°N
Pressure: 30.08"   Gusts: 28mph
Location:  40.51°N, 85.83°W
Report Text: KMZZ 312335Z AUTO 36013G24KT 10SM -RA OVC008 01/00 A3008 RMK AO2 T00120000
Loading
Personal Weather Stations






























Interactive Weather Map
Tropical Storm Tracking
New forecast layout! Learn more

10-Day Weather Forecast

Advertisements
Track Severe Weather on mobile